Time;durP1;ratioP1;P1;durP2;ratioP2;P2;SDS_P1;SDS_P2;PMS_P1;PMS_P2;Temp;Humidity;BMP_temperature;BMP_pressure;BME280_temperature;BME280_humidity;BME280_pressure;Samples;Min_cycle;Max_cycle;Signal;HPM_P1;HPM_P2
2023/08/27 00:02:39;;;;;;;17.95;4.05;;;;;;;-139.19;100.00;56970.53;5068547;28;20055;-70
2023/08/27 00:06:04;;;;;;;12.05;3.40;;;;;;;-139.19;100.00;56970.53;5068284;28;20036;-70
2023/08/27 00:09:27;;;;;;;12.23;4.13;;;;;;;-139.19;100.00;56970.53;5060301;28;20067;-70
2023/08/27 00:12:51;;;;;;;8.45;3.95;;;;;;;-139.19;100.00;56970.53;5061050;28;20110;-70
2023/08/27 00:16:15;;;;;;;11.77;3.38;;;;;;;-139.19;100.00;56970.53;5065527;28;20025;-70
2023/08/27 00:19:39;;;;;;;14.10;3.90;;;;;;;-139.19;100.00;56970.53;5057539;28;20076;-70
2023/08/27 00:23:04;;;;;;;11.63;3.47;;;;;;;-139.19;100.00;56970.53;5064170;28;20119;-70
2023/08/27 00:26:28;;;;;;;15.27;3.90;;;;;;;-139.19;100.00;56970.53;5064922;28;20024;-69
2023/08/27 00:29:52;;;;;;;6.45;3.13;;;;;;;-139.19;100.00;56970.53;5069867;28;20036;-70
2023/08/27 00:33:16;;;;;;;7.90;3.85;;;;;;;-139.19;100.00;56970.53;5066861;28;20054;-70
2023/08/27 00:36:39;;;;;;;16.70;4.03;;;;;;;-139.19;100.00;56970.53;5063865;28;20037;-70
2023/08/27 00:40:04;;;;;;;10.75;4.07;;;;;;;-139.19;100.00;56970.53;5073657;28;20495;-69
2023/08/27 00:43:28;;;;;;;16.30;4.13;;;;;;;-139.19;100.00;56970.53;5067779;28;20375;-70
2023/08/27 00:46:52;;;;;;;8.80;3.95;;;;;;;-139.19;100.00;56970.53;5071154;28;20046;-70
2023/08/27 00:50:16;;;;;;;19.55;4.13;;;;;;;-139.19;100.00;56970.53;5066361;28;20044;-70
2023/08/27 00:53:41;;;;;;;10.90;4.03;;;;;;;-139.19;100.00;56970.53;5073079;28;20062;-70
2023/08/27 00:57:05;;;;;;;7.88;3.60;;;;;;;-139.19;100.00;56970.53;5065078;28;20055;-70
2023/08/27 01:00:29;;;;;;;10.38;3.65;;;;;;;-139.19;100.00;56970.53;5071126;28;20093;-70
2023/08/27 01:03:53;;;;;;;11.02;3.83;;;;;;;-139.19;100.00;56970.53;5058746;28;20598;-70
2023/08/27 01:07:23;;;;;;;6.53;3.50;;;;;;;-139.19;100.00;56970.53;5059941;28;20085;-70
2023/08/27 01:11:12;;;;;;;8.73;3.65;;;;;;;-139.19;100.00;56970.53;5064152;28;20480;-70
2023/08/27 01:14:45;;;;;;;6.25;2.83;;;;;;;-139.19;100.00;56970.53;5059403;28;20376;-69
2023/08/27 01:18:12;;;;;;;9.70;3.45;;;;;;;-139.19;100.00;56970.53;5065277;28;20120;-70
2023/08/27 01:21:36;;;;;;;6.80;3.38;;;;;;;-139.19;100.00;56970.53;5066373;28;20032;-70
2023/08/27 01:25:00;;;;;;;9.07;3.40;;;;;;;-139.19;100.00;56970.53;5064922;28;20052;-69
2023/08/27 01:28:40;;;;;;;10.32;4.40;;;;;;;-139.19;100.00;56970.53;5066276;28;20464;-70
2023/08/27 01:32:22;;;;;;;8.13;3.20;;;;;;;-139.19;100.00;56970.53;5070536;28;20027;-70
2023/08/27 01:35:46;;;;;;;12.52;4.18;;;;;;;-139.19;100.00;56970.53;5067236;28;20055;-69
2023/08/27 01:39:16;;;;;;;7.53;3.53;;;;;;;-139.19;100.00;56970.53;5066420;28;20028;-69
2023/08/27 01:42:40;;;;;;;11.77;4.13;;;;;;;-139.19;100.00;56970.53;5067511;28;20060;-70
2023/08/27 01:46:04;;;;;;;11.35;3.53;;;;;;;-139.19;100.00;56970.53;5070503;28;20027;-69
2023/08/27 01:49:28;;;;;;;6.93;3.50;;;;;;;-139.19;100.00;56970.53;5067550;28;20043;-70
2023/08/27 01:52:52;;;;;;;7.65;3.45;;;;;;;-139.19;100.00;56970.53;5057615;28;20032;-70
2023/08/27 01:56:16;;;;;;;11.48;3.63;;;;;;;-139.19;100.00;56970.53;5071320;28;20043;-69
2023/08/27 01:59:40;;;;;;;10.70;3.40;;;;;;;-139.19;100.00;56970.53;5057844;28;20033;-69
2023/08/27 02:03:05;;;;;;;8.20;3.60;;;;;;;-139.19;100.00;56970.53;5063697;28;20059;-69
2023/08/27 02:06:29;;;;;;;6.43;3.17;;;;;;;-139.19;100.00;56970.53;5071164;28;20095;-69
2023/08/27 02:09:53;;;;;;;11.82;3.58;;;;;;;-139.19;100.00;56970.53;5073865;28;20494;-69
2023/08/27 02:13:17;;;;;;;11.77;3.83;;;;;;;-139.19;100.00;56970.53;5072340;28;20040;-69
2023/08/27 02:16:41;;;;;;;10.18;3.88;;;;;;;-139.19;100.00;56970.53;5069337;28;20423;-69
2023/08/27 02:20:07;;;;;;;12.63;4.25;;;;;;;-139.19;100.00;56970.53;5058416;28;20486;-69
2023/08/27 02:23:31;;;;;;;8.07;3.78;;;;;;;-139.19;100.00;56970.53;5064853;28;20016;-69
2023/08/27 02:26:55;;;;;;;8.50;3.55;;;;;;;-139.19;100.00;56970.53;5063201;28;20025;-69
2023/08/27 02:30:18;;;;;;;7.40;3.80;;;;;;;-139.19;100.00;56970.53;5064528;28;20477;-69
2023/08/27 02:33:43;;;;;;;8.82;3.67;;;;;;;-139.19;100.00;56970.53;5066234;28;20025;-69
2023/08/27 02:37:07;;;;;;;8.07;3.38;;;;;;;-139.19;100.00;56970.53;5068033;28;20059;-69
2023/08/27 02:40:31;;;;;;;13.23;3.72;;;;;;;-139.19;100.00;56970.53;5063570;28;20534;-69
2023/08/27 02:43:55;;;;;;;15.77;3.90;;;;;;;-139.19;100.00;56970.53;5067142;28;20525;-69
2023/08/27 02:47:19;;;;;;;8.85;4.18;;;;;;;-139.19;100.00;56970.53;5070987;28;20024;-69
2023/08/27 02:50:43;;;;;;;6.18;3.70;;;;;;;-139.19;100.00;56970.53;5070339;28;20056;-70
2023/08/27 02:54:07;;;;;;;8.85;3.60;;;;;;;-139.19;100.00;56970.53;5072455;28;20117;-69
2023/08/27 02:57:31;;;;;;;9.63;3.88;;;;;;;-139.19;100.00;56970.53;5062504;28;20134;-69
2023/08/27 03:00:55;;;;;;;12.52;4.03;;;;;;;-139.19;100.00;56970.53;5065570;28;20032;-69
2023/08/27 03:04:19;;;;;;;8.18;3.58;;;;;;;-139.19;100.00;56970.53;5066510;28;20024;-69
2023/08/27 03:07:43;;;;;;;12.57;3.63;;;;;;;-139.19;100.00;56970.53;5071027;28;20086;-69
2023/08/27 03:11:06;;;;;;;9.18;3.45;;;;;;;-139.19;100.00;56970.53;5064717;28;20123;-69
2023/08/27 03:14:30;;;;;;;11.52;3.25;;;;;;;-139.19;100.00;56970.53;5065129;28;20040;-69
2023/08/27 03:17:54;;;;;;;6.85;3.65;;;;;;;-139.19;100.00;56970.53;5063227;28;20040;-69
2023/08/27 03:21:18;;;;;;;11.82;3.47;;;;;;;-139.19;100.00;56970.53;5064587;28;20017;-69
2023/08/27 03:24:42;;;;;;;9.63;3.50;;;;;;;-139.19;100.00;56970.53;5068367;28;20032;-69
2023/08/27 03:28:06;;;;;;;12.15;2.95;;;;;;;-139.19;100.00;56970.53;5061528;28;20155;-69
2023/08/27 03:31:30;;;;;;;10.90;3.35;;;;;;;-139.19;100.00;56970.53;5072232;28;20078;-69
2023/08/27 03:34:54;;;;;;;12.43;3.28;;;;;;;-139.19;100.00;56970.53;5073073;28;20032;-69
2023/08/27 03:38:18;;;;;;;8.30;3.97;;;;;;;-139.19;100.00;56970.53;5073187;28;20119;-69
2023/08/27 03:41:45;;;;;;;5.63;3.40;;;;;;;-139.19;100.00;56970.53;5066534;28;20028;-69
2023/08/27 03:45:09;;;;;;;6.32;3.30;;;;;;;-139.19;100.00;56970.53;5069144;28;20071;-69
2023/08/27 03:48:33;;;;;;;16.42;4.05;;;;;;;-139.19;100.00;56970.53;5072011;28;20425;-69
2023/08/27 03:51:57;;;;;;;6.00;3.20;;;;;;;-139.19;100.00;56970.53;5071623;28;20032;-69
2023/08/27 03:55:21;;;;;;;7.32;3.47;;;;;;;-139.19;100.00;56970.53;5068600;28;20036;-69
2023/08/27 03:58:45;;;;;;;8.85;3.55;;;;;;;-139.19;100.00;56970.53;5072520;28;20365;-69
2023/08/27 04:02:09;;;;;;;8.68;3.65;;;;;;;-139.19;100.00;56970.53;5070487;28;20032;-69
2023/08/27 04:05:32;;;;;;;6.25;3.40;;;;;;;-139.19;100.00;56970.53;5066574;28;20056;-69
2023/08/27 04:08:56;;;;;;;10.20;3.90;;;;;;;-139.19;100.00;56970.53;5068678;28;20107;-69
2023/08/27 04:12:21;;;;;;;6.03;3.13;;;;;;;-139.19;100.00;56970.53;5072720;28;20043;-69
2023/08/27 04:15:46;;;;;;;9.40;3.47;;;;;;;-139.19;100.00;56970.53;5071034;28;20032;-69
2023/08/27 04:19:09;;;;;;;6.38;3.47;;;;;;;-139.19;100.00;56970.53;5072980;28;20024;-69
2023/08/27 04:22:33;;;;;;;8.48;3.35;;;;;;;-139.19;100.00;56970.53;5073153;28;20376;-69
2023/08/27 04:25:57;;;;;;;9.27;3.55;;;;;;;-139.19;100.00;56970.53;5071986;28;20032;-69
2023/08/27 04:29:21;;;;;;;7.97;3.20;;;;;;;-139.19;100.00;56970.53;5073262;28;20098;-69
2023/08/27 04:32:45;;;;;;;9.48;3.03;;;;;;;-139.19;100.00;56970.53;5072965;28;20433;-69
2023/08/27 04:36:09;;;;;;;8.85;3.17;;;;;;;-139.19;100.00;56970.53;5059326;28;20025;-69
2023/08/27 04:39:33;;;;;;;6.22;3.25;;;;;;;-139.19;100.00;56970.53;5052875;28;20163;-69
2023/08/27 04:42:57;;;;;;;11.10;3.67;;;;;;;-139.19;100.00;56970.53;5052858;28;20029;-69
2023/08/27 04:46:21;;;;;;;12.70;3.30;;;;;;;-139.19;100.00;56970.53;5065098;28;20498;-69
2023/08/27 04:49:45;;;;;;;6.75;3.60;;;;;;;-139.19;100.00;56970.53;5067191;28;20041;-69
2023/08/27 04:53:08;;;;;;;13.90;4.43;;;;;;;-139.19;100.00;56970.53;5072253;28;20070;-69
2023/08/27 04:56:32;;;;;;;15.18;3.70;;;;;;;-139.19;100.00;56970.53;5071542;28;20526;-69
2023/08/27 04:59:56;;;;;;;5.47;3.20;;;;;;;-139.19;100.00;56970.53;5071461;28;20028;-69
2023/08/27 05:03:20;;;;;;;8.55;3.83;;;;;;;-139.19;100.00;56970.53;5071842;28;20438;-69
2023/08/27 05:06:44;;;;;;;13.68;3.78;;;;;;;-139.19;100.00;56970.53;5072068;28;20062;-69
2023/08/27 05:10:08;;;;;;;9.27;3.72;;;;;;;-139.19;100.00;56970.53;5071828;28;20032;-69
2023/08/27 05:13:32;;;;;;;6.95;3.80;;;;;;;-139.19;100.00;56970.53;5075856;28;20032;-69
2023/08/27 05:16:56;;;;;;;6.85;3.50;;;;;;;-139.19;100.00;56970.53;5076064;28;20075;-69
2023/08/27 05:20:20;;;;;;;4.88;3.20;;;;;;;-139.19;100.00;56970.53;5075538;28;20024;-69
2023/08/27 05:23:44;;;;;;;6.45;3.47;;;;;;;-139.19;100.00;56970.53;5075704;28;20480;-69
2023/08/27 05:27:08;;;;;;;9.55;3.20;;;;;;;-139.19;100.00;56970.53;5075426;28;20033;-69
2023/08/27 05:30:32;;;;;;;11.18;4.07;;;;;;;-139.19;100.00;56970.53;5068705;28;20103;-69
2023/08/27 05:33:55;;;;;;;4.90;2.95;;;;;;;-139.19;100.00;56970.53;5074706;28;20022;-69
2023/08/27 05:37:19;;;;;;;5.57;3.22;;;;;;;-139.19;100.00;56970.53;5074124;28;20047;-69
2023/08/27 05:40:43;;;;;;;7.97;3.42;;;;;;;-139.19;100.00;56970.53;5073517;28;20111;-69
2023/08/27 05:44:07;;;;;;;5.28;2.97;;;;;;;-139.19;100.00;56970.53;5071207;28;20165;-69
2023/08/27 05:47:31;;;;;;;9.05;3.70;;;;;;;-139.19;100.00;56970.53;5074865;28;20107;-69
2023/08/27 05:50:55;;;;;;;9.85;3.28;;;;;;;-139.19;100.00;56970.53;5074040;28;20044;-69
2023/08/27 05:54:19;;;;;;;7.28;3.65;;;;;;;-139.19;100.00;56970.53;5074319;28;20028;-69
2023/08/27 05:57:42;;;;;;;10.57;3.53;;;;;;;-139.19;100.00;56970.53;5074376;28;20043;-70
2023/08/27 06:01:06;;;;;;;10.48;3.40;;;;;;;-139.19;100.00;56970.53;5069123;28;20060;-70
2023/08/27 06:04:30;;;;;;;18.83;4.15;;;;;;;-139.19;100.00;56970.53;5074506;28;20488;-70
2023/08/27 06:07:54;;;;;;;14.07;4.07;;;;;;;-139.19;100.00;56970.53;5069173;28;20119;-70
2023/08/27 06:11:18;;;;;;;13.30;3.47;;;;;;;-139.19;100.00;56970.53;5074786;28;20472;-70
2023/08/27 06:14:42;;;;;;;9.55;3.45;;;;;;;-139.19;100.00;56970.53;5072760;28;20047;-70
2023/08/27 06:18:07;;;;;;;9.80;3.75;;;;;;;-139.19;100.00;56970.53;5073758;28;20068;-70
2023/08/27 06:21:32;;;;;;;7.55;4.05;;;;;;;-139.19;100.00;56970.53;5073479;28;20420;-70
2023/08/27 06:24:55;;;;;;;9.18;3.75;;;;;;;-139.19;100.00;56970.53;5074820;28;20407;-70
2023/08/27 06:28:19;;;;;;;15.23;4.20;;;;;;;-139.19;100.00;56970.53;5074789;28;20025;-70
2023/08/27 06:31:43;;;;;;;7.90;4.03;;;;;;;-139.19;100.00;56970.53;5074719;28;20055;-70
2023/08/27 06:35:09;;;;;;;10.32;4.60;;;;;;;-139.19;100.00;56970.53;5074673;28;20077;-70
2023/08/27 06:38:33;;;;;;;6.78;4.28;;;;;;;-139.19;100.00;56970.53;5072107;28;20547;-70
2023/08/27 06:41:57;;;;;;;10.82;4.25;;;;;;;-139.19;100.00;56970.53;5074539;28;20060;-70
2023/08/27 06:45:21;;;;;;;5.50;3.92;;;;;;;-139.19;100.00;56970.53;5074659;28;20028;-70
2023/08/27 06:48:45;;;;;;;11.63;4.70;;;;;;;-139.19;100.00;56970.53;5074323;28;20351;-70
2023/08/27 06:52:09;;;;;;;9.60;4.50;;;;;;;-139.19;100.00;56970.53;5073999;28;20463;-70
2023/08/27 06:55:33;;;;;;;15.63;5.30;;;;;;;-139.19;100.00;56970.53;5067455;28;20108;-70
2023/08/27 06:58:57;;;;;;;14.85;5.55;;;;;;;-139.19;100.00;56970.53;5063068;28;20104;-70
2023/08/27 07:02:21;;;;;;;10.80;4.88;;;;;;;-139.19;100.00;56970.53;5071313;28;20028;-70
2023/08/27 07:05:45;;;;;;;12.43;4.93;;;;;;;-139.19;100.00;56970.53;5070800;28;20032;-70
2023/08/27 07:09:09;;;;;;;12.02;4.63;;;;;;;-139.19;100.00;56970.53;5073502;28;20082;-70
2023/08/27 07:12:33;;;;;;;9.27;4.45;;;;;;;-139.19;100.00;56970.53;5073713;28;20488;-70
2023/08/27 07:16:02;;;;;;;11.27;5.40;;;;;;;-139.19;100.00;56970.53;5064035;28;20119;-70
2023/08/27 07:19:26;;;;;;;10.93;5.22;;;;;;;-139.19;100.00;56970.53;5061620;28;20029;-70
2023/08/27 07:22:50;;;;;;;14.50;6.25;;;;;;;-139.19;100.00;56970.53;5060036;28;20086;-70
2023/08/27 07:26:14;;;;;;;11.60;6.05;;;;;;;-139.19;100.00;56970.53;5062898;28;20487;-70
2023/08/27 07:29:38;;;;;;;19.15;5.25;;;;;;;-139.19;100.00;56970.53;5066178;28;20036;-70
2023/08/27 07:33:02;;;;;;;10.02;5.20;;;;;;;-139.19;100.00;56970.53;5060630;28;20105;-70
2023/08/27 07:36:26;;;;;;;13.43;5.18;;;;;;;-139.19;100.00;56970.53;5058281;28;20104;-72
2023/08/27 07:39:50;;;;;;;12.23;5.40;;;;;;;-139.19;100.00;56970.53;5065448;28;20064;-76
2023/08/27 07:43:14;;;;;;;16.85;6.80;;;;;;;-139.19;100.00;56970.53;5070667;28;20044;-67
2023/08/27 07:46:37;;;;;;;13.10;6.38;;;;;;;-139.19;100.00;56970.53;5059238;28;20103;-73
2023/08/27 07:50:01;;;;;;;14.25;6.10;;;;;;;-139.19;100.00;56970.53;5063249;28;20496;-70
2023/08/27 07:53:26;;;;;;;12.82;7.22;;;;;;;-139.19;100.00;56970.53;5068497;28;20102;-72
2023/08/27 07:56:50;;;;;;;12.32;6.97;;;;;;;-139.19;100.00;56970.53;5068325;28;20089;-71
2023/08/27 08:00:14;;;;;;;19.70;7.18;;;;;;;-139.19;100.00;56970.53;5063481;28;20105;-73
2023/08/27 08:03:38;;;;;;;14.20;6.55;;;;;;;-139.19;100.00;56970.53;5062236;28;20033;-72
2023/08/27 08:07:02;;;;;;;11.77;6.20;;;;;;;-139.19;100.00;56970.53;5067761;28;20443;-73
2023/08/27 08:10:26;;;;;;;15.32;6.20;;;;;;;-139.19;100.00;56970.53;5062491;28;20025;-73
2023/08/27 08:13:51;;;;;;;15.15;6.10;;;;;;;-139.19;100.00;56970.53;5063005;28;20451;-73
2023/08/27 08:17:15;;;;;;;9.35;5.43;;;;;;;-139.19;100.00;56970.53;5069951;28;20107;-75
2023/08/27 08:20:39;;;;;;;19.27;6.03;;;;;;;-139.19;100.00;56970.53;5059050;28;20108;-75
2023/08/27 08:24:03;;;;;;;17.35;5.90;;;;;;;-139.19;100.00;56970.53;5063249;28;20028;-75
2023/08/27 08:27:27;;;;;;;15.82;5.50;;;;;;;-139.19;100.00;56970.53;5065511;28;20044;-76
2023/08/27 08:30:51;;;;;;;12.93;5.55;;;;;;;-139.19;100.00;56970.53;5059926;28;20029;-76
2023/08/27 08:34:15;;;;;;;12.00;4.82;;;;;;;-139.19;100.00;56970.53;5066189;28;20028;-75
2023/08/27 08:37:39;;;;;;;9.80;4.80;;;;;;;-139.19;100.00;56970.53;5060226;28;20394;-76
2023/08/27 08:41:04;;;;;;;14.35;5.57;;;;;;;-139.19;100.00;56970.53;5058972;28;20071;-75
2023/08/27 08:44:38;;;;;;;16.52;5.50;;;;;;;-139.19;100.00;56970.53;5064502;28;20021;-76
2023/08/27 08:48:05;;;;;;;12.00;5.47;;;;;;;-139.19;100.00;56970.53;5068871;28;20082;-76
2023/08/27 08:51:31;;;;;;;12.60;5.45;;;;;;;-139.19;100.00;56970.53;5065155;28;20047;-76
2023/08/27 08:54:57;;;;;;;11.60;4.72;;;;;;;-139.19;100.00;56970.53;5067066;28;20031;-75
2023/08/27 08:58:23;;;;;;;13.35;4.68;;;;;;;-139.19;100.00;56970.53;5068379;28;20414;-75
2023/08/27 09:01:47;;;;;;;11.90;5.07;;;;;;;-139.19;100.00;56970.53;5066385;28;20460;-75
2023/08/27 09:05:12;;;;;;;8.82;4.55;;;;;;;-139.19;100.00;56970.53;5069917;28;20468;-75
2023/08/27 09:08:37;;;;;;;15.27;5.50;;;;;;;-139.19;100.00;56970.53;5073278;28;20036;-75
2023/08/27 09:12:01;;;;;;;12.93;5.40;;;;;;;-139.19;100.00;56970.53;5064311;28;20025;-78
2023/08/27 09:15:27;;;;;;;11.10;5.43;;;;;;;-139.19;100.00;56970.53;5064859;28;20032;-76
2023/08/27 09:18:51;;;;;;;12.65;5.80;;;;;;;-139.19;100.00;56970.53;5070797;28;20021;-77
2023/08/27 09:22:15;;;;;;;16.92;5.80;;;;;;;-139.19;100.00;56970.53;5070366;28;20510;-77
2023/08/27 09:25:39;;;;;;;15.07;5.95;;;;;;;-139.19;100.00;56970.53;5071250;28;20482;-76
2023/08/27 09:29:07;;;;;;;12.70;5.80;;;;;;;-139.19;100.00;56970.53;5065441;28;20033;-74
2023/08/27 09:32:37;;;;;;;19.70;6.88;;;;;;;-139.19;100.00;56970.53;5064574;28;20036;-73
2023/08/27 09:36:02;;;;;;;18.17;8.10;;;;;;;-139.19;100.00;56970.53;5069539;28;20020;-72
2023/08/27 09:39:26;;;;;;;16.00;7.22;;;;;;;-139.19;100.00;56970.53;5065245;28;20028;-71
2023/08/27 09:43:04;;;;;;;18.42;7.63;;;;;;;-139.19;100.00;56970.53;5071513;28;20076;-71
2023/08/27 09:46:27;;;;;;;18.25;7.97;;;;;;;-139.19;100.00;56970.53;5067384;28;20446;-72
2023/08/27 09:50:18;;;;;;;21.30;7.72;;;;;;;-139.19;100.00;56970.53;5062953;28;20045;-73
2023/08/27 09:53:41;;;;;;;14.88;7.90;;;;;;;-139.19;100.00;56970.53;5058298;28;20025;-72
2023/08/27 09:57:16;;;;;;;13.30;7.10;;;;;;;-139.19;100.00;56970.53;5063133;28;20029;-72
2023/08/27 10:00:42;;;;;;;15.80;6.18;;;;;;;-139.19;100.00;56970.53;5059430;28;20045;-72
2023/08/27 10:04:09;;;;;;;11.35;5.57;;;;;;;-139.19;100.00;56970.53;5068166;28;20032;-72
2023/08/27 10:07:36;;;;;;;8.60;4.90;;;;;;;-139.19;100.00;56970.53;5064851;28;20028;-72
2023/08/27 10:11:10;;;;;;;10.90;5.20;;;;;;;-139.19;100.00;56970.53;5062901;28;20020;-72
2023/08/27 10:14:39;;;;;;;16.33;5.07;;;;;;;-139.19;100.00;56970.53;5060964;28;20025;-72
2023/08/27 10:18:04;;;;;;;10.82;4.78;;;;;;;-139.19;100.00;56970.53;5061769;28;20021;-72
2023/08/27 10:21:29;;;;;;;8.57;4.72;;;;;;;-139.19;100.00;56970.53;5064191;28;20035;-73
2023/08/27 10:24:54;;;;;;;7.55;4.15;;;;;;;-139.19;100.00;56970.53;5062755;28;20500;-73
2023/08/27 10:28:19;;;;;;;18.13;5.45;;;;;;;-139.19;100.00;56970.53;5062337;28;20025;-73
2023/08/27 10:31:44;;;;;;;9.15;4.00;;;;;;;-139.19;100.00;56970.53;5057082;28;20377;-72
2023/08/27 10:35:09;;;;;;;10.50;4.75;;;;;;;-139.19;100.00;56970.53;5070799;28;20024;-72
2023/08/27 10:38:36;;;;;;;17.67;4.88;;;;;;;-139.19;100.00;56970.53;5055178;28;20032;-75
2023/08/27 10:42:01;;;;;;;8.90;4.47;;;;;;;-139.19;100.00;56970.53;5065929;28;20082;-74
2023/08/27 10:45:27;;;;;;;11.10;4.82;;;;;;;-139.19;100.00;56970.53;5054249;28;20033;-76
2023/08/27 10:49:14;;;;;;;11.10;4.30;;;;;;;-139.19;100.00;56970.53;5054060;28;20060;-75
2023/08/27 10:52:57;;;;;;;8.45;4.07;;;;;;;-139.19;100.00;56970.53;5069527;28;20040;-75
2023/08/27 10:56:31;;;;;;;10.10;4.28;;;;;;;-139.19;100.00;56970.53;5074283;28;20028;-75
2023/08/27 11:00:07;;;;;;;8.50;4.53;;;;;;;-139.19;100.00;56970.53;5054214;28;20488;-75
2023/08/27 11:03:50;;;;;;;13.32;4.40;;;;;;;-139.19;100.00;56970.53;5073111;28;20028;-75
2023/08/27 11:07:15;;;;;;;12.82;4.45;;;;;;;-139.19;100.00;56970.53;5072485;28;20028;-75
2023/08/27 11:10:54;;;;;;;5.18;3.47;;;;;;;-139.19;100.00;56970.53;5063793;28;20028;-76
2023/08/27 11:14:36;;;;;;;8.13;4.07;;;;;;;-139.19;100.00;56970.53;5073278;28;20031;-76
2023/08/27 11:18:20;;;;;;;10.38;3.88;;;;;;;-139.19;100.00;56970.53;5054192;28;20498;-76
2023/08/27 11:21:47;;;;;;;11.00;4.28;;;;;;;-139.19;100.00;56970.53;5061671;28;20040;-75
2023/08/27 11:25:14;;;;;;;5.90;3.40;;;;;;;-139.19;100.00;56970.53;5053886;28;20024;-77
2023/08/27 11:28:42;;;;;;;10.40;4.32;;;;;;;-139.19;100.00;56970.53;5053501;28;20025;-75
2023/08/27 11:32:07;;;;;;;7.18;4.32;;;;;;;-139.19;100.00;56970.53;5070799;28;20546;-76
2023/08/27 11:35:36;;;;;;;6.57;3.67;;;;;;;-139.19;100.00;56970.53;5063593;28;20089;-75
2023/08/27 11:39:05;;;;;;;6.03;3.40;;;;;;;-139.19;100.00;56970.53;5060819;28;20037;-75
2023/08/27 11:42:36;;;;;;;7.57;3.80;;;;;;;-139.19;100.00;56970.53;5054158;28;20064;-73
2023/08/27 11:46:00;;;;;;;7.97;4.43;;;;;;;-139.19;100.00;56970.53;5052616;28;20430;-67
2023/08/27 11:49:30;;;;;;;6.20;2.70;;;;;;;-139.19;100.00;56970.53;5052818;28;20091;-75
2023/08/27 11:52:55;;;;;;;12.10;2.30;;;;;;;-139.19;100.00;56970.53;5052834;28;20171;-76
2023/08/27 11:56:21;;;;;;;9.05;3.88;;;;;;;-139.19;100.00;56970.53;5053155;28;20064;-74
2023/08/27 11:59:49;;;;;;;5.68;2.97;;;;;;;-139.19;100.00;56970.53;5058863;28;20456;-74
2023/08/27 12:03:14;;;;;;;5.80;2.28;;;;;;;-139.19;100.00;56970.53;5072561;28;20033;-75
2023/08/27 12:06:38;;;;;;;5.65;2.83;;;;;;;-139.19;100.00;56970.53;5072174;28;20491;-76
2023/08/27 12:10:10;;;;;;;4.07;1.73;;;;;;;-139.19;100.00;56970.53;5061445;28;20039;-75
2023/08/27 12:13:38;;;;;;;5.38;2.67;;;;;;;-139.19;100.00;56970.53;5053043;28;20051;-75
2023/08/27 12:17:03;;;;;;;3.45;2.00;;;;;;;-139.19;100.00;56970.53;5052839;28;20477;-76
2023/08/27 12:20:37;;;;;;;3.33;2.20;;;;;;;-139.19;100.00;56970.53;5075433;28;20383;-75
2023/08/27 12:24:25;;;;;;;7.30;2.03;;;;;;;-139.19;100.00;56970.53;5063452;28;20035;-76
2023/08/27 12:27:49;;;;;;;8.90;2.20;;;;;;;-139.19;100.00;56970.53;5068899;28;20554;-76
2023/08/27 12:31:20;;;;;;;7.57;2.05;;;;;;;-139.19;100.00;56970.53;5070696;28;20020;-76
2023/08/27 12:34:45;;;;;;;3.63;1.52;;;;;;;-139.19;100.00;56970.53;5062592;28;20087;-75
2023/08/27 12:38:09;;;;;;;4.65;1.83;;;;;;;-139.19;100.00;56970.53;5056914;28;20032;-75
2023/08/27 12:41:34;;;;;;;6.72;2.28;;;;;;;-139.19;100.00;56970.53;5056801;28;20503;-76
2023/08/27 12:44:58;;;;;;;6.15;1.60;;;;;;;-139.19;100.00;56970.53;5057793;28;20074;-76
2023/08/27 12:48:22;;;;;;;5.32;1.65;;;;;;;-139.19;100.00;56970.53;5067653;28;20107;-76
2023/08/27 12:51:46;;;;;;;4.85;1.88;;;;;;;-139.19;100.00;56970.53;5058574;28;20060;-76
2023/08/27 12:55:10;;;;;;;2.67;1.63;;;;;;;-139.19;100.00;56970.53;5068950;28;20024;-75
2023/08/27 12:58:34;;;;;;;5.28;1.52;;;;;;;-139.19;100.00;56970.53;5055844;28;20120;-76
2023/08/27 13:01:58;;;;;;;7.10;1.80;;;;;;;-139.19;100.00;56970.53;5056148;28;20025;-76
2023/08/27 13:05:22;;;;;;;4.95;1.80;;;;;;;-139.19;100.00;56970.53;5062048;28;20060;-75
2023/08/27 13:08:46;;;;;;;6.50;2.20;;;;;;;-139.19;100.00;56970.53;5056233;28;20065;-76
2023/08/27 13:12:10;;;;;;;4.85;1.38;;;;;;;-139.19;100.00;56970.53;5056121;28;20438;-76
2023/08/27 13:15:34;;;;;;;7.65;1.83;;;;;;;-139.19;100.00;56970.53;5055265;28;20043;-77
2023/08/27 13:18:58;;;;;;;6.13;1.50;;;;;;;-139.19;100.00;56970.53;5055895;28;20037;-76
2023/08/27 13:22:22;;;;;;;4.97;1.75;;;;;;;-139.19;100.00;56970.53;5056018;28;20465;-76
2023/08/27 13:25:46;;;;;;;3.22;1.25;;;;;;;-139.19;100.00;56970.53;5055903;28;20040;-76
2023/08/27 13:29:10;;;;;;;5.00;1.58;;;;;;;-139.19;100.00;56970.53;5055239;28;20082;-76
2023/08/27 13:32:34;;;;;;;12.77;2.80;;;;;;;-139.19;100.00;56970.53;5055648;28;20036;-75
2023/08/27 13:35:59;;;;;;;3.30;1.20;;;;;;;-139.19;100.00;56970.53;5062926;28;20025;-75
2023/08/27 13:39:22;;;;;;;4.68;1.48;;;;;;;-139.19;100.00;56970.53;5055582;28;20029;-76
2023/08/27 13:42:46;;;;;;;5.63;1.40;;;;;;;-139.19;100.00;56970.53;5061812;28;20032;-76
2023/08/27 13:46:10;;;;;;;4.50;1.42;;;;;;;-139.19;100.00;56970.53;5055168;28;20028;-77
2023/08/27 13:49:34;;;;;;;6.38;1.55;;;;;;;-139.19;100.00;56970.53;5055195;28;20077;-77
2023/08/27 13:52:58;;;;;;;3.28;1.77;;;;;;;-139.19;100.00;56970.53;5055394;28;20534;-76
2023/08/27 13:56:23;;;;;;;6.10;1.83;;;;;;;-139.19;100.00;56970.53;5068624;28;20029;-76
2023/08/27 13:59:46;;;;;;;4.70;1.52;;;;;;;-139.19;100.00;56970.53;5054661;28;20033;-76
2023/08/27 14:03:10;;;;;;;3.70;1.48;;;;;;;-139.19;100.00;56970.53;5055300;28;20029;-76
2023/08/27 14:06:35;;;;;;;5.65;1.73;;;;;;;-139.19;100.00;56970.53;5055299;28;20037;-76
2023/08/27 14:10:00;;;;;;;6.30;1.80;;;;;;;-139.19;100.00;56970.53;5064118;28;20020;-76
2023/08/27 14:13:24;;;;;;;2.75;1.70;;;;;;;-139.19;100.00;56970.53;5070492;28;20025;-77
2023/08/27 14:16:47;;;;;;;3.45;1.50;;;;;;;-139.19;100.00;56970.53;5054809;28;20458;-76
2023/08/27 14:20:11;;;;;;;3.35;1.50;;;;;;;-139.19;100.00;56970.53;5054782;28;20473;-77
2023/08/27 14:23:35;;;;;;;4.32;1.60;;;;;;;-139.19;100.00;56970.53;5054658;28;20032;-76
2023/08/27 14:26:59;;;;;;;4.78;1.80;;;;;;;-139.19;100.00;56970.53;5059320;28;20039;-76
2023/08/27 14:30:23;;;;;;;7.60;1.23;;;;;;;-139.19;100.00;56970.53;5071939;28;20063;-72
2023/08/27 14:33:47;;;;;;;3.58;1.48;;;;;;;-139.19;100.00;56970.53;5062702;28;20484;-76
2023/08/27 14:37:11;;;;;;;5.15;1.83;;;;;;;-139.19;100.00;56970.53;5060045;28;20423;-77
2023/08/27 14:40:35;;;;;;;5.53;1.50;;;;;;;-139.19;100.00;56970.53;5062508;28;20032;-77
2023/08/27 14:44:00;;;;;;;4.72;1.52;;;;;;;-139.19;100.00;56970.53;5066743;28;20050;-77
2023/08/27 14:47:23;;;;;;;4.85;1.70;;;;;;;-139.19;100.00;56970.53;5069630;28;20064;-77
2023/08/27 14:50:47;;;;;;;2.65;1.40;;;;;;;-139.19;100.00;56970.53;5054209;28;20037;-77
2023/08/27 14:54:11;;;;;;;3.78;1.70;;;;;;;-139.19;100.00;56970.53;5055442;28;20032;-77
2023/08/27 14:57:35;;;;;;;3.20;1.80;;;;;;;-139.19;100.00;56970.53;5052892;28;20033;-76
2023/08/27 15:00:59;;;;;;;6.13;1.23;;;;;;;-139.19;100.00;56970.53;5064774;28;20107;-76
2023/08/27 15:04:23;;;;;;;6.32;1.27;;;;;;;-139.19;100.00;56970.53;5059894;28;20029;-73
2023/08/27 15:07:47;;;;;;;4.85;1.40;;;;;;;-139.19;100.00;56970.53;5057200;28;20617;-72
2023/08/27 15:11:15;;;;;;;4.82;1.35;;;;;;;-139.19;100.00;56970.53;5073402;28;20024;-76
2023/08/27 15:14:39;;;;;;;3.97;1.30;;;;;;;-139.19;100.00;56970.53;5053868;28;20044;-75
2023/08/27 15:18:03;;;;;;;9.07;1.80;;;;;;;-139.19;100.00;56970.53;5058303;28;20025;-77
2023/08/27 15:21:27;;;;;;;6.00;1.38;;;;;;;-139.19;100.00;56970.53;5073123;28;20020;-75
2023/08/27 15:24:51;;;;;;;3.60;1.55;;;;;;;-139.19;100.00;56970.53;5064068;28;20064;-76
2023/08/27 15:28:15;;;;;;;5.47;2.05;;;;;;;-139.19;100.00;56970.53;5062958;28;20510;-77
2023/08/27 15:31:39;;;;;;;6.20;2.13;;;;;;;-139.19;100.00;56970.53;5060822;28;20033;-77